createdAt,value
2023-05-23T00:02:01.813Z,98269.16
2023-05-23T00:05:03.591Z,98275.59
2023-05-23T00:08:05.060Z,98276.66
2023-05-23T00:11:06.429Z,98266.22
2023-05-23T00:14:08.329Z,98258.44
2023-05-23T00:17:10.946Z,98261.00
2023-05-23T00:20:12.481Z,98254.84
2023-05-23T00:23:18.988Z,98260.97
2023-05-23T00:26:21.756Z,98259.94
2023-05-23T00:29:23.163Z,98257.44
2023-05-23T00:32:25.023Z,98260.38
2023-05-23T00:35:26.450Z,98259.56
2023-05-23T00:38:28.509Z,98261.31
2023-05-23T00:41:30.576Z,98264.91
2023-05-23T00:44:32.004Z,98265.88
2023-05-23T00:47:33.425Z,98269.25
2023-05-23T00:50:36.220Z,98271.22
2023-05-23T00:53:37.656Z,98273.09
2023-05-23T00:56:39.047Z,98267.78
2023-05-23T00:59:40.785Z,98265.06
2023-05-23T01:02:45.127Z,98266.59
2023-05-23T01:05:46.748Z,98266.59
2023-05-23T01:08:48.096Z,98263.25
2023-05-23T01:11:52.216Z,98262.63
2023-05-23T01:14:59.527Z,98275.00
2023-05-23T01:18:10.623Z,98269.97
2023-05-23T01:21:13.363Z,98271.72
2023-05-23T01:24:22.413Z,98267.50
2023-05-23T01:27:26.803Z,98268.31
2023-05-23T01:30:28.235Z,98276.13
2023-05-23T01:33:30.754Z,98268.41
2023-05-23T01:36:35.070Z,98275.41
2023-05-23T01:39:36.749Z,98280.56
2023-05-23T01:42:38.132Z,98281.44
2023-05-23T01:45:39.640Z,98285.13
2023-05-23T01:48:41.197Z,98287.09
2023-05-23T01:51:42.618Z,98286.31
2023-05-23T01:54:43.989Z,98285.72
2023-05-23T01:57:45.605Z,98282.19
2023-05-23T02:00:47.075Z,98275.41
2023-05-23T02:03:48.649Z,98271.00
2023-05-23T02:06:50.126Z,98271.88
2023-05-23T02:09:51.569Z,98267.59
2023-05-23T02:12:52.977Z,98265.81
2023-05-23T02:15:54.384Z,98270.97
2023-05-23T02:18:59.352Z,98271.84
2023-05-23T02:22:00.972Z,98269.34
2023-05-23T02:25:02.375Z,98264.00
2023-05-23T02:28:03.773Z,98264.09
2023-05-23T02:31:05.169Z,98275.69
2023-05-23T02:34:06.568Z,98274.03
2023-05-23T02:37:07.957Z,98285.22
2023-05-23T02:40:09.621Z,98283.47
2023-05-23T02:43:11.021Z,98281.69
2023-05-23T02:46:13.696Z,98291.16
2023-05-23T02:49:15.200Z,98277.97
2023-05-23T02:52:17.078Z,98289.28
2023-05-23T02:55:18.497Z,98290.22
2023-05-23T02:58:20.792Z,98295.63
2023-05-23T03:01:22.289Z,98296.44
2023-05-23T03:04:24.019Z,98300.69
2023-05-23T03:07:28.464Z,98304.97
2023-05-23T03:10:30.755Z,98311.09
2023-05-23T03:13:32.299Z,98301.47
2023-05-23T03:16:33.881Z,98309.41
2023-05-23T03:19:36.773Z,98307.44
2023-05-23T03:22:38.439Z,98302.03
2023-05-23T03:25:40.132Z,98306.41
2023-05-23T03:28:41.817Z,98313.38
2023-05-23T03:31:43.365Z,98312.34
2023-05-23T03:34:44.971Z,98310.72
2023-05-23T03:37:46.525Z,98308.06
2023-05-23T03:40:48.032Z,98304.63
2023-05-23T03:43:49.533Z,98298.25
2023-05-23T03:46:51.069Z,98300.69
2023-05-23T03:49:52.870Z,98313.72
2023-05-23T03:52:54.599Z,98314.97
2023-05-23T03:55:56.150Z,98319.25
2023-05-23T03:58:57.682Z,98316.44
2023-05-23T04:02:00.549Z,98307.25
2023-05-23T04:05:03.076Z,98311.69
2023-05-23T04:08:04.651Z,98317.91
2023-05-23T04:11:06.256Z,98317.75
2023-05-23T04:14:08.114Z,98320.53
2023-05-23T04:17:09.715Z,98328.41
2023-05-23T04:20:11.829Z,98327.50
2023-05-23T04:23:13.270Z,98327.44
2023-05-23T04:26:14.776Z,98330.88
2023-05-23T04:29:16.425Z,98335.31
2023-05-23T04:32:19.442Z,98331.03
2023-05-23T04:35:21.310Z,98329.34
2023-05-23T04:38:25.105Z,98329.97
2023-05-23T04:41:26.551Z,98339.56
2023-05-23T04:44:30.364Z,98336.03
2023-05-23T04:47:36.964Z,98339.34
2023-05-23T04:50:40.621Z,98339.56
2023-05-23T04:53:43.034Z,98343.28
2023-05-23T04:56:44.621Z,98336.03
2023-05-23T04:59:46.547Z,98333.19
2023-05-23T05:02:48.273Z,98351.81
2023-05-23T05:05:49.699Z,98343.03
2023-05-23T05:08:51.276Z,98345.34
2023-05-23T05:11:52.682Z,98362.44
2023-05-23T05:14:54.084Z,98351.19
2023-05-23T05:17:56.350Z,98353.72
2023-05-23T05:20:58.590Z,98346.63
2023-05-23T05:24:00.161Z,98346.41
2023-05-23T05:27:01.591Z,98366.25
2023-05-23T05:30:06.470Z,98369.78
2023-05-23T05:33:08.017Z,98364.19
2023-05-23T05:36:09.509Z,98383.69
2023-05-23T05:39:10.915Z,98373.06
2023-05-23T05:42:12.306Z,98380.59
2023-05-23T05:45:13.751Z,98380.59
2023-05-23T05:48:15.188Z,98378.81
2023-05-23T05:51:17.534Z,98378.53
2023-05-23T05:54:19.448Z,98385.97
2023-05-23T05:57:20.913Z,98392.75
2023-05-23T06:00:22.575Z,98393.53
2023-05-23T06:03:24.775Z,98398.56
2023-05-23T06:06:26.386Z,98404.63
2023-05-23T06:09:27.799Z,98404.63
2023-05-23T06:12:29.197Z,98405.84
2023-05-23T06:15:30.651Z,98408.41
2023-05-23T06:18:32.063Z,98408.50
2023-05-23T06:21:33.541Z,98411.69
2023-05-23T06:24:35.023Z,98412.19
2023-05-23T06:27:36.940Z,98416.25
2023-05-23T06:30:39.224Z,98426.44
2023-05-23T06:33:40.924Z,98439.97
2023-05-23T06:36:43.002Z,98447.44
2023-05-23T06:39:44.489Z,98454.78
2023-05-23T06:42:45.967Z,98462.81
2023-05-23T06:45:47.764Z,98467.09
2023-05-23T06:48:54.299Z,98467.47
2023-05-23T06:52:00.869Z,98473.66
2023-05-23T06:55:02.283Z,98471.41
2023-05-23T06:58:06.939Z,98476.41
2023-05-23T07:01:08.407Z,98471.28
2023-05-23T07:04:09.875Z,98487.97
2023-05-23T07:07:11.309Z,98488.41
2023-05-23T07:10:13.077Z,98484.34
2023-05-23T07:13:14.506Z,98496.53
2023-05-23T07:16:16.163Z,98504.56
2023-05-23T07:19:17.616Z,98496.13
2023-05-23T07:22:19.142Z,98489.25
2023-05-23T07:25:20.568Z,98494.38
2023-05-23T07:28:22.255Z,98498.13
2023-05-23T07:31:23.716Z,98495.13
2023-05-23T07:34:26.802Z,98514.38
2023-05-23T07:37:28.244Z,98506.09
2023-05-23T07:40:29.703Z,98508.63
2023-05-23T07:43:31.101Z,98504.03
2023-05-23T07:46:32.587Z,98505.19
2023-05-23T07:49:34.353Z,98520.22
2023-05-23T07:52:36.317Z,98522.84
2023-05-23T07:55:37.769Z,98522.28
2023-05-23T07:58:39.177Z,98538.97
2023-05-23T08:01:40.670Z,98545.44
2023-05-23T08:04:42.211Z,98554.28
2023-05-23T08:07:43.676Z,98565.94
2023-05-23T08:10:45.772Z,98581.25
2023-05-23T08:13:47.235Z,98583.72
2023-05-23T08:16:49.119Z,98583.16
2023-05-23T08:19:50.814Z,98598.00
2023-05-23T08:22:52.896Z,98610.03
2023-05-23T08:25:54.469Z,98610.38
2023-05-23T08:28:56.039Z,98602.31
2023-05-23T08:31:57.679Z,98615.72
2023-05-23T08:34:59.189Z,98620.25
2023-05-23T08:38:01.708Z,98628.88
2023-05-23T08:41:03.172Z,98625.03
2023-05-23T08:44:04.623Z,98621.41
2023-05-23T08:47:06.019Z,98618.53
2023-05-23T08:50:08.193Z,98630.69
2023-05-23T08:53:10.423Z,98631.75
2023-05-23T08:56:11.863Z,98637.34
2023-05-23T08:59:13.287Z,98633.75
2023-05-23T09:02:14.688Z,98646.31
2023-05-23T09:05:16.170Z,98644.72
2023-05-23T09:08:19.340Z,98642.53
2023-05-23T09:11:22.001Z,98652.31
2023-05-23T09:14:23.437Z,98651.69
2023-05-23T09:17:24.878Z,98656.28
2023-05-23T09:20:26.335Z,98651.09
2023-05-23T09:23:31.268Z,98659.41
2023-05-23T09:26:32.692Z,98657.59
2023-05-23T09:29:38.490Z,98660.94
2023-05-23T09:32:39.991Z,98663.16
2023-05-23T09:35:45.203Z,98660.63
2023-05-23T09:38:46.879Z,98661.88
2023-05-23T09:41:48.742Z,98660.00
2023-05-23T09:44:50.362Z,98663.31
2023-05-23T09:47:52.291Z,98661.94
2023-05-23T09:50:53.827Z,98672.63
2023-05-23T09:53:57.032Z,98668.84
2023-05-23T09:57:01.308Z,98668.84
2023-05-23T10:00:06.465Z,98671.94
2023-05-23T10:03:12.839Z,98672.31
2023-05-23T10:06:18.588Z,98683.63
2023-05-23T10:09:20.775Z,98672.63
2023-05-23T10:12:22.183Z,98676.75
2023-05-23T10:15:23.975Z,98673.72
2023-05-23T10:18:35.073Z,98677.50
2023-05-23T10:21:38.927Z,98675.00
2023-05-23T10:24:40.405Z,98678.25
2023-05-23T10:27:41.949Z,98679.41
2023-05-23T10:30:43.468Z,98674.56
2023-05-23T10:33:46.461Z,98674.97
2023-05-23T10:36:54.115Z,98675.50
2023-05-23T10:39:57.861Z,98675.59
2023-05-23T10:43:02.789Z,98680.91
2023-05-23T10:46:04.350Z,98683.00
2023-05-23T10:49:05.821Z,98679.75
2023-05-23T10:52:07.430Z,98686.22
2023-05-23T10:55:15.413Z,98691.59
2023-05-23T10:58:18.973Z,98684.66
2023-05-23T11:01:20.820Z,98686.53
2023-05-23T11:04:26.640Z,98690.81
2023-05-23T11:07:32.041Z,98681.59
2023-05-23T11:10:33.433Z,98683.00
2023-05-23T11:13:53.201Z,98681.63
2023-05-23T11:16:54.639Z,98687.09
2023-05-23T11:19:57.064Z,98683.00
2023-05-23T11:23:02.811Z,98692.31
2023-05-23T11:26:04.342Z,98691.84
2023-05-23T11:29:09.289Z,98697.19
2023-05-23T11:32:15.991Z,98695.63
2023-05-23T11:35:18.936Z,98693.81
2023-05-23T11:38:20.423Z,98707.97
2023-05-23T11:41:21.988Z,98700.47
2023-05-23T11:44:23.512Z,98694.22
2023-05-23T11:47:24.994Z,98688.28
2023-05-23T11:50:26.461Z,98695.66
2023-05-23T11:53:28.149Z,98690.50
2023-05-23T11:56:29.550Z,98695.19
2023-05-23T11:59:30.962Z,98689.63
2023-05-23T12:02:32.362Z,98693.75
2023-05-23T12:05:33.833Z,98697.81
2023-05-23T12:08:35.359Z,98696.34
2023-05-23T12:11:36.760Z,98699.69
2023-05-23T12:14:44.360Z,98692.53
2023-05-23T12:17:46.557Z,98688.56
2023-05-23T12:20:53.808Z,98688.34
2023-05-23T12:23:55.400Z,98688.25
2023-05-23T12:27:00.220Z,98686.00
2023-05-23T12:30:14.117Z,98693.34
2023-05-23T12:33:16.060Z,98700.91
2023-05-23T12:36:25.100Z,98691.78
2023-05-23T12:39:28.227Z,98701.84
2023-05-23T12:42:30.770Z,98691.25
2023-05-23T12:45:32.249Z,98694.03
2023-05-23T12:48:33.946Z,98704.34
2023-05-23T12:51:35.516Z,98706.44
2023-05-23T12:54:37.099Z,98697.78
2023-05-23T12:57:38.690Z,98712.94
2023-05-23T13:00:40.223Z,98703.44
2023-05-23T13:03:41.707Z,98702.66
2023-05-23T13:06:43.109Z,98698.94
2023-05-23T13:09:46.553Z,98698.78
2023-05-23T13:12:47.953Z,98699.59
2023-05-23T13:15:51.095Z,98707.88
2023-05-23T13:18:53.297Z,98694.06
2023-05-23T13:21:54.746Z,98698.16
2023-05-23T13:24:56.444Z,98702.25
2023-05-23T13:27:57.965Z,98703.53
2023-05-23T13:30:59.391Z,98693.97
2023-05-23T13:34:01.086Z,98703.31
2023-05-23T13:37:02.547Z,98688.50
2023-05-23T13:40:04.260Z,98688.44
2023-05-23T13:43:06.037Z,98697.72
2023-05-23T13:46:07.521Z,98690.06
2023-05-23T13:49:08.976Z,98692.50
2023-05-23T13:52:10.397Z,98676.44
2023-05-23T13:55:11.769Z,98681.91
2023-05-23T13:58:13.209Z,98680.91
2023-05-23T14:01:14.662Z,98689.97
2023-05-23T14:04:16.070Z,98677.75
2023-05-23T14:07:17.943Z,98683.91
2023-05-23T14:10:19.348Z,98671.44
2023-05-23T14:13:21.839Z,98666.53
2023-05-23T14:16:23.354Z,98667.63
2023-05-23T14:19:24.849Z,98676.97
2023-05-23T14:22:26.584Z,98678.94
2023-05-23T14:25:27.980Z,98679.56
2023-05-23T14:28:29.454Z,98666.84
2023-05-23T14:31:30.858Z,98677.13
2023-05-23T14:34:32.302Z,98671.94
2023-05-23T14:37:33.729Z,98674.94
2023-05-23T14:40:35.169Z,98680.63
2023-05-23T14:43:36.671Z,98666.50
2023-05-23T14:46:38.220Z,98674.72
2023-05-23T14:49:39.658Z,98669.34
2023-05-23T14:52:41.808Z,98665.47
2023-05-23T14:55:43.382Z,98660.47
2023-05-23T14:58:45.898Z,98661.88
2023-05-23T15:01:47.337Z,98657.91
2023-05-23T15:04:48.779Z,98652.72
2023-05-23T15:07:51.062Z,98657.78
2023-05-23T15:10:52.445Z,98659.00
2023-05-23T15:13:53.906Z,98656.31
2023-05-23T15:16:55.804Z,98655.50
2023-05-23T15:19:57.422Z,98648.97
2023-05-23T15:22:58.813Z,98654.66
2023-05-23T15:26:00.589Z,98656.91
2023-05-23T15:29:01.984Z,98652.31
2023-05-23T15:32:03.450Z,98641.53
2023-05-23T15:35:05.098Z,98654.34
2023-05-23T15:38:06.532Z,98651.94
2023-05-23T15:41:07.940Z,98647.81
2023-05-23T15:44:09.422Z,98656.56
2023-05-23T15:47:11.587Z,98657.81
2023-05-23T15:50:14.389Z,98652.94
2023-05-23T15:53:15.970Z,98660.81
2023-05-23T15:56:17.497Z,98647.09
2023-05-23T15:59:18.881Z,98650.56
2023-05-23T16:02:20.369Z,98649.19
2023-05-23T16:05:21.905Z,98648.84
2023-05-23T16:08:23.316Z,98653.38
2023-05-23T16:11:24.691Z,98649.34
2023-05-23T16:14:26.097Z,98648.03
2023-05-23T16:17:27.491Z,98637.19
2023-05-23T16:20:28.924Z,98651.50
2023-05-23T16:23:30.595Z,98646.63
2023-05-23T16:26:32.109Z,98642.53
2023-05-23T16:29:33.589Z,98645.75
2023-05-23T16:32:35.009Z,98641.50
2023-05-23T16:35:36.439Z,98644.44
2023-05-23T16:38:37.850Z,98639.50
2023-05-23T16:41:39.241Z,98633.44
2023-05-23T16:44:41.059Z,98630.31
2023-05-23T16:47:42.589Z,98633.94
2023-05-23T16:50:44.372Z,98629.19
2023-05-23T16:53:45.924Z,98630.09
2023-05-23T16:56:47.444Z,98631.50
2023-05-23T16:59:48.895Z,98632.81
2023-05-23T17:02:50.325Z,98626.75
2023-05-23T17:05:51.762Z,98627.66
2023-05-23T17:08:53.260Z,98630.22
2023-05-23T17:11:54.694Z,98631.28
2023-05-23T17:14:56.164Z,98628.25
2023-05-23T17:17:57.614Z,98636.56
2023-05-23T17:20:59.533Z,98638.06
2023-05-23T17:24:00.989Z,98628.44
2023-05-23T17:27:03.721Z,98627.22
2023-05-23T17:30:05.642Z,98624.19
2023-05-23T17:33:07.922Z,98618.75
2023-05-23T17:36:09.410Z,98620.66
2023-05-23T17:39:10.827Z,98624.31
2023-05-23T17:42:12.751Z,98634.25
2023-05-23T17:45:14.266Z,98627.41
2023-05-23T17:48:15.761Z,98630.13
2023-05-23T17:51:17.195Z,98629.91
2023-05-23T17:54:18.603Z,98625.25
2023-05-23T17:57:20.018Z,98634.72
2023-05-23T18:00:21.583Z,98637.16
2023-05-23T18:03:24.285Z,98649.16
2023-05-23T18:06:27.018Z,98648.94
2023-05-23T18:09:28.600Z,98646.03
2023-05-23T18:12:30.362Z,98650.50
2023-05-23T18:15:31.858Z,98655.38
2023-05-23T18:18:33.518Z,98661.00
2023-05-23T18:21:35.015Z,98661.34
2023-05-23T18:24:36.593Z,98672.28
2023-05-23T18:27:38.074Z,98670.75
2023-05-23T18:30:39.705Z,98672.22
2023-05-23T18:33:41.341Z,98667.13
2023-05-23T18:36:43.105Z,98667.94
2023-05-23T18:39:44.541Z,98667.38
2023-05-23T18:42:47.342Z,98666.88
2023-05-23T18:45:48.882Z,98666.97
2023-05-23T18:48:51.055Z,98671.03
2023-05-23T18:51:54.327Z,98675.97
2023-05-23T18:54:55.946Z,98682.13
2023-05-23T18:57:59.055Z,98682.47
2023-05-23T19:01:03.703Z,98692.63
2023-05-23T19:04:05.163Z,98696.22
2023-05-23T19:07:07.584Z,98702.41
2023-05-23T19:10:09.184Z,98701.91
2023-05-23T19:13:10.668Z,98709.19
2023-05-23T19:16:12.070Z,98709.31
2023-05-23T19:19:14.523Z,98710.44
2023-05-23T19:22:16.171Z,98712.97
2023-05-23T19:25:17.600Z,98720.41
2023-05-23T19:28:19.045Z,98728.59
2023-05-23T19:31:20.480Z,98736.78
2023-05-23T19:34:22.148Z,98744.78
2023-05-23T19:37:23.607Z,98744.97
2023-05-23T19:40:25.179Z,98751.97
2023-05-23T19:43:26.758Z,98756.25
2023-05-23T19:46:29.018Z,98760.59
2023-05-23T19:49:30.630Z,98758.28
2023-05-23T19:52:32.342Z,98751.34
2023-05-23T19:55:33.740Z,98749.63
2023-05-23T19:58:36.122Z,98752.44
2023-05-23T20:01:37.574Z,98747.97
2023-05-23T20:04:38.946Z,98754.72
2023-05-23T20:07:40.344Z,98747.97
2023-05-23T20:10:43.232Z,98755.97
2023-05-23T20:13:44.933Z,98763.09
2023-05-23T20:16:46.449Z,98771.75
2023-05-23T20:19:47.859Z,98770.91
2023-05-23T20:22:49.319Z,98776.75
2023-05-23T20:25:51.692Z,98774.53
2023-05-23T20:28:53.257Z,98784.97
2023-05-23T20:31:54.766Z,98779.81
2023-05-23T20:34:56.240Z,98787.91
2023-05-23T20:38:00.232Z,98787.31
2023-05-23T20:41:06.538Z,98784.28
2023-05-23T20:44:12.405Z,98794.41
2023-05-23T20:47:15.414Z,98795.63
2023-05-23T20:50:19.026Z,98799.72
2023-05-23T20:53:20.416Z,98796.66
2023-05-23T20:56:22.586Z,98801.97
2023-05-23T20:59:26.259Z,98806.16
2023-05-23T21:02:27.817Z,98812.44
2023-05-23T21:05:29.263Z,98818.06
2023-05-23T21:08:33.048Z,98819.78
2023-05-23T21:11:36.220Z,98816.19
2023-05-23T21:14:37.627Z,98812.13
2023-05-23T21:17:39.027Z,98822.25
2023-05-23T21:20:40.612Z,98823.16
2023-05-23T21:23:42.153Z,98809.59
2023-05-23T21:26:43.640Z,98811.31
2023-05-23T21:29:46.858Z,98811.88
2023-05-23T21:32:48.963Z,98806.38
2023-05-23T21:35:51.138Z,98799.19
2023-05-23T21:38:52.515Z,98796.56
2023-05-23T21:41:53.886Z,98789.34
2023-05-23T21:44:55.309Z,98786.34
2023-05-23T21:47:56.789Z,98791.72
2023-05-23T21:50:58.229Z,98798.28
2023-05-23T21:53:59.627Z,98794.63
2023-05-23T21:57:01.225Z,98796.31
2023-05-23T22:00:04.677Z,98803.44
2023-05-23T22:03:06.242Z,98799.97
2023-05-23T22:06:07.743Z,98802.41
2023-05-23T22:09:11.511Z,98806.22
2023-05-23T22:12:13.781Z,98809.13
2023-05-23T22:15:15.249Z,98810.78
2023-05-23T22:18:16.749Z,98811.22
2023-05-23T22:21:18.151Z,98818.88
2023-05-23T22:24:19.543Z,98806.13
2023-05-23T22:27:21.350Z,98816.72
2023-05-23T22:30:22.765Z,98820.19
2023-05-23T22:33:24.323Z,98824.44
2023-05-23T22:36:25.759Z,98826.72
2023-05-23T22:39:27.225Z,98827.41
2023-05-23T22:42:28.705Z,98825.59
2023-05-23T22:45:30.198Z,98830.34
2023-05-23T22:48:34.356Z,98828.72
2023-05-23T22:51:35.865Z,98831.63
2023-05-23T22:54:37.281Z,98824.19
2023-05-23T22:57:38.711Z,98826.81
2023-05-23T23:00:40.248Z,98823.72
2023-05-23T23:03:41.860Z,98828.09
2023-05-23T23:06:44.436Z,98823.44
2023-05-23T23:09:46.065Z,98820.72
2023-05-23T23:12:47.465Z,98822.41
2023-05-23T23:15:50.206Z,98815.81
2023-05-23T23:18:52.577Z,98807.88
2023-05-23T23:21:53.991Z,98807.38
2023-05-23T23:24:55.745Z,98801.81
2023-05-23T23:27:57.137Z,98805.53
2023-05-23T23:30:58.520Z,98796.88
2023-05-23T23:33:59.972Z,98783.16
2023-05-23T23:37:01.359Z,98784.03
2023-05-23T23:40:02.758Z,98787.47
2023-05-23T23:43:04.158Z,98791.63
2023-05-23T23:46:05.580Z,98793.31
2023-05-23T23:49:06.957Z,98795.19
2023-05-23T23:52:08.912Z,98794.38
2023-05-23T23:55:10.368Z,98794.59
2023-05-23T23:58:11.835Z,98793.81
